sensor_id;sensor_type;location;lat;lon;timestamp;P1;durP1;ratioP1;P2;durP2;ratioP2
2406;SDS011;37709;53.480;9.688;2022-09-20T00:01:20;10.80;;;3.00;;
2406;SDS011;37709;53.480;9.688;2022-09-20T00:03:50;10.43;;;2.87;;
2406;SDS011;37709;53.480;9.688;2022-09-20T00:06:21;10.07;;;2.93;;
2406;SDS011;37709;53.480;9.688;2022-09-20T00:08:51;8.83;;;2.33;;
2406;SDS011;37709;53.480;9.688;2022-09-20T00:11:20;10.67;;;2.80;;
2406;SDS011;37709;53.480;9.688;2022-09-20T00:13:50;10.43;;;2.93;;
2406;SDS011;37709;53.480;9.688;2022-09-20T00:16:20;12.33;;;3.17;;
2406;SDS011;37709;53.480;9.688;2022-09-20T00:18:53;10.33;;;3.20;;
2406;SDS011;37709;53.480;9.688;2022-09-20T00:21:24;11.80;;;3.23;;
2406;SDS011;37709;53.480;9.688;2022-09-20T00:23:54;6.77;;;2.50;;
2406;SDS011;37709;53.480;9.688;2022-09-20T00:26:24;12.87;;;2.53;;
2406;SDS011;37709;53.480;9.688;2022-09-20T00:28:52;11.80;;;2.63;;
2406;SDS011;37709;53.480;9.688;2022-09-20T00:31:20;12.57;;;3.77;;
2406;SDS011;37709;53.480;9.688;2022-09-20T00:33:47;9.40;;;2.90;;
2406;SDS011;37709;53.480;9.688;2022-09-20T00:36:33;12.07;;;2.67;;
2406;SDS011;37709;53.480;9.688;2022-09-20T00:39:02;10.47;;;2.60;;
2406;SDS011;37709;53.480;9.688;2022-09-20T00:41:30;9.80;;;3.20;;
2406;SDS011;37709;53.480;9.688;2022-09-20T00:43:58;8.93;;;2.73;;
2406;SDS011;37709;53.480;9.688;2022-09-20T00:49:27;10.40;;;2.50;;
2406;SDS011;37709;53.480;9.688;2022-09-20T00:51:54;13.50;;;2.97;;
2406;SDS011;37709;53.480;9.688;2022-09-20T00:54:25;11.90;;;3.20;;
2406;SDS011;37709;53.480;9.688;2022-09-20T00:56:54;11.17;;;3.57;;
2406;SDS011;37709;53.480;9.688;2022-09-20T00:59:32;10.57;;;3.00;;
2406;SDS011;37709;53.480;9.688;2022-09-20T01:02:08;6.83;;;2.77;;
2406;SDS011;37709;53.480;9.688;2022-09-20T01:04:42;9.43;;;2.70;;
2406;SDS011;37709;53.480;9.688;2022-09-20T01:07:12;11.97;;;3.10;;
2406;SDS011;37709;53.480;9.688;2022-09-20T01:09:42;8.83;;;2.70;;
2406;SDS011;37709;53.480;9.688;2022-09-20T01:12:15;10.27;;;2.73;;
2406;SDS011;37709;53.480;9.688;2022-09-20T01:14:45;8.97;;;2.40;;
2406;SDS011;37709;53.480;9.688;2022-09-20T01:17:15;5.03;;;2.33;;
2406;SDS011;37709;53.480;9.688;2022-09-20T01:25:44;12.90;;;2.50;;
2406;SDS011;37709;53.480;9.688;2022-09-20T01:28:29;8.57;;;2.57;;
2406;SDS011;37709;53.480;9.688;2022-09-20T01:33:37;8.63;;;2.70;;
2406;SDS011;37709;53.480;9.688;2022-09-20T01:36:17;11.60;;;3.30;;
2406;SDS011;37709;53.480;9.688;2022-09-20T01:39:05;7.10;;;2.40;;
2406;SDS011;37709;53.480;9.688;2022-09-20T01:41:46;9.07;;;2.30;;
2406;SDS011;37709;53.480;9.688;2022-09-20T01:44:21;12.03;;;3.00;;
2406;SDS011;37709;53.480;9.688;2022-09-20T01:47:02;8.50;;;2.90;;
2406;SDS011;37709;53.480;9.688;2022-09-20T01:52:32;6.03;;;2.90;;
2406;SDS011;37709;53.480;9.688;2022-09-20T01:55:34;9.33;;;3.57;;
2406;SDS011;37709;53.480;9.688;2022-09-20T02:11:58;6.83;;;2.57;;
2406;SDS011;37709;53.480;9.688;2022-09-20T02:15:03;13.60;;;3.73;;
2406;SDS011;37709;53.480;9.688;2022-09-20T02:20:36;5.47;;;3.07;;
2406;SDS011;37709;53.480;9.688;2022-09-20T02:34:41;10.27;;;3.53;;
2406;SDS011;37709;53.480;9.688;2022-09-20T02:48:23;11.90;;;4.40;;
2406;SDS011;37709;53.480;9.688;2022-09-20T02:51:04;8.00;;;4.03;;
2406;SDS011;37709;53.480;9.688;2022-09-20T02:53:50;7.30;;;3.73;;
2406;SDS011;37709;53.480;9.688;2022-09-20T02:56:33;11.10;;;4.70;;
2406;SDS011;37709;53.480;9.688;2022-09-20T02:59:15;14.07;;;4.30;;
2406;SDS011;37709;53.480;9.688;2022-09-20T03:01:49;10.23;;;4.83;;
2406;SDS011;37709;53.480;9.688;2022-09-20T03:13:28;10.43;;;4.50;;
2406;SDS011;37709;53.480;9.688;2022-09-20T03:24:51;7.07;;;3.73;;
2406;SDS011;37709;53.480;9.688;2022-09-20T03:39:22;6.20;;;3.50;;
2406;SDS011;37709;53.480;9.688;2022-09-20T03:42:24;8.13;;;3.60;;
2406;SDS011;37709;53.480;9.688;2022-09-20T03:44:58;5.87;;;3.20;;
2406;SDS011;37709;53.480;9.688;2022-09-20T03:51:03;3.33;;;2.90;;
2406;SDS011;37709;53.480;9.688;2022-09-20T03:53:15;8.67;;;3.27;;
2406;SDS011;37709;53.480;9.688;2022-09-20T03:56:28;7.80;;;2.87;;
2406;SDS011;37709;53.480;9.688;2022-09-20T03:59:25;8.67;;;3.37;;
2406;SDS011;37709;53.480;9.688;2022-09-20T04:07:20;5.50;;;3.63;;
2406;SDS011;37709;53.480;9.688;2022-09-20T04:18:43;7.50;;;3.47;;
2406;SDS011;37709;53.480;9.688;2022-09-20T04:23:59;7.23;;;2.87;;
2406;SDS011;37709;53.480;9.688;2022-09-20T04:26:54;7.67;;;3.00;;
2406;SDS011;37709;53.480;9.688;2022-09-20T04:32:17;6.77;;;3.20;;
2406;SDS011;37709;53.480;9.688;2022-09-20T04:34:53;7.33;;;2.87;;
2406;SDS011;37709;53.480;9.688;2022-09-20T04:37:59;8.83;;;3.47;;
2406;SDS011;37709;53.480;9.688;2022-09-20T04:51:44;7.13;;;3.43;;
2406;SDS011;37709;53.480;9.688;2022-09-20T05:00:04;4.87;;;2.60;;
2406;SDS011;37709;53.480;9.688;2022-09-20T05:14:20;5.80;;;3.40;;
2406;SDS011;37709;53.480;9.688;2022-09-20T05:19:30;3.80;;;2.27;;
2406;SDS011;37709;53.480;9.688;2022-09-20T05:22:14;4.37;;;2.00;;
2406;SDS011;37709;53.480;9.688;2022-09-20T05:24:51;6.00;;;2.80;;
2406;SDS011;37709;53.480;9.688;2022-09-20T05:27:28;6.45;;;2.90;;
2406;SDS011;37709;53.480;9.688;2022-09-20T05:36:02;2.30;;;2.00;;
2406;SDS011;37709;53.480;9.688;2022-09-20T05:38:46;4.23;;;2.50;;
2406;SDS011;37709;53.480;9.688;2022-09-20T05:44:20;3.97;;;2.50;;
2406;SDS011;37709;53.480;9.688;2022-09-20T05:46:56;4.87;;;2.07;;
2406;SDS011;37709;53.480;9.688;2022-09-20T05:55:28;4.03;;;2.27;;
2406;SDS011;37709;53.480;9.688;2022-09-20T06:01:02;8.37;;;2.87;;
2406;SDS011;37709;53.480;9.688;2022-09-20T06:06:48;7.73;;;2.80;;
2406;SDS011;37709;53.480;9.688;2022-09-20T06:12:32;8.35;;;4.00;;
2406;SDS011;37709;53.480;9.688;2022-09-20T06:20:36;5.87;;;2.50;;
2406;SDS011;37709;53.480;9.688;2022-09-20T06:23:09;6.20;;;2.60;;
2406;SDS011;37709;53.480;9.688;2022-09-20T06:25:46;5.33;;;1.90;;
2406;SDS011;37709;53.480;9.688;2022-09-20T06:28:37;7.97;;;2.30;;
2406;SDS011;37709;53.480;9.688;2022-09-20T06:31:09;6.13;;;2.00;;
2406;SDS011;37709;53.480;9.688;2022-09-20T06:33:39;4.50;;;1.83;;
2406;SDS011;37709;53.480;9.688;2022-09-20T06:36:22;5.57;;;2.30;;
2406;SDS011;37709;53.480;9.688;2022-09-20T06:39:23;3.80;;;1.70;;
2406;SDS011;37709;53.480;9.688;2022-09-20T06:42:17;5.33;;;1.93;;
2406;SDS011;37709;53.480;9.688;2022-09-20T06:44:48;3.20;;;1.60;;
2406;SDS011;37709;53.480;9.688;2022-09-20T06:47:15;5.80;;;1.50;;
2406;SDS011;37709;53.480;9.688;2022-09-20T06:49:45;4.00;;;1.57;;
2406;SDS011;37709;53.480;9.688;2022-09-20T06:52:16;3.80;;;1.67;;
2406;SDS011;37709;53.480;9.688;2022-09-20T06:54:45;5.23;;;1.57;;
2406;SDS011;37709;53.480;9.688;2022-09-20T06:57:23;3.67;;;1.33;;
2406;SDS011;37709;53.480;9.688;2022-09-20T07:00:14;3.67;;;1.20;;
2406;SDS011;37709;53.480;9.688;2022-09-20T07:02:42;4.13;;;1.60;;
2406;SDS011;37709;53.480;9.688;2022-09-20T07:05:14;3.53;;;1.10;;
2406;SDS011;37709;53.480;9.688;2022-09-20T07:07:42;3.00;;;0.87;;
2406;SDS011;37709;53.480;9.688;2022-09-20T07:10:10;5.27;;;1.37;;
2406;SDS011;37709;53.480;9.688;2022-09-20T07:12:38;5.63;;;1.27;;
2406;SDS011;37709;53.480;9.688;2022-09-20T07:15:05;5.60;;;1.23;;
2406;SDS011;37709;53.480;9.688;2022-09-20T07:17:33;2.40;;;0.80;;
2406;SDS011;37709;53.480;9.688;2022-09-20T07:20:01;6.33;;;1.63;;
2406;SDS011;37709;53.480;9.688;2022-09-20T07:22:28;2.67;;;1.30;;
2406;SDS011;37709;53.480;9.688;2022-09-20T07:24:56;5.40;;;1.40;;
2406;SDS011;37709;53.480;9.688;2022-09-20T07:27:24;4.85;;;1.42;;
2406;SDS011;37709;53.480;9.688;2022-09-20T07:29:55;3.70;;;1.30;;
2406;SDS011;37709;53.480;9.688;2022-09-20T07:32:22;4.60;;;1.20;;
2406;SDS011;37709;53.480;9.688;2022-09-20T07:34:50;2.43;;;0.97;;
2406;SDS011;37709;53.480;9.688;2022-09-20T07:37:17;7.10;;;1.20;;
2406;SDS011;37709;53.480;9.688;2022-09-20T07:39:45;6.60;;;1.17;;
2406;SDS011;37709;53.480;9.688;2022-09-20T07:42:12;6.15;;;1.50;;
2406;SDS011;37709;53.480;9.688;2022-09-20T07:44:40;5.23;;;1.00;;
2406;SDS011;37709;53.480;9.688;2022-09-20T07:47:11;3.97;;;1.50;;
2406;SDS011;37709;53.480;9.688;2022-09-20T07:49:40;7.23;;;1.53;;
2406;SDS011;37709;53.480;9.688;2022-09-20T07:52:08;5.70;;;1.20;;
2406;SDS011;37709;53.480;9.688;2022-09-20T07:54:36;5.60;;;1.50;;
2406;SDS011;37709;53.480;9.688;2022-09-20T07:57:06;3.70;;;1.60;;
2406;SDS011;37709;53.480;9.688;2022-09-20T07:59:34;7.77;;;1.70;;
2406;SDS011;37709;53.480;9.688;2022-09-20T08:02:02;2.13;;;0.93;;
2406;SDS011;37709;53.480;9.688;2022-09-20T08:04:29;7.32;;;1.77;;
2406;SDS011;37709;53.480;9.688;2022-09-20T08:06:57;3.60;;;1.13;;
2406;SDS011;37709;53.480;9.688;2022-09-20T08:09:27;3.70;;;1.23;;
2406;SDS011;37709;53.480;9.688;2022-09-20T08:11:55;9.43;;;1.80;;
2406;SDS011;37709;53.480;9.688;2022-09-20T08:14:23;4.13;;;1.90;;
2406;SDS011;37709;53.480;9.688;2022-09-20T08:16:51;8.93;;;1.50;;
2406;SDS011;37709;53.480;9.688;2022-09-20T08:19:19;3.33;;;1.20;;
2406;SDS011;37709;53.480;9.688;2022-09-20T08:21:49;2.53;;;1.10;;
2406;SDS011;37709;53.480;9.688;2022-09-20T08:24:19;4.53;;;1.42;;
2406;SDS011;37709;53.480;9.688;2022-09-20T08:26:46;5.47;;;1.07;;
2406;SDS011;37709;53.480;9.688;2022-09-20T08:29:14;4.07;;;1.50;;
2406;SDS011;37709;53.480;9.688;2022-09-20T08:31:42;5.23;;;1.30;;
2406;SDS011;37709;53.480;9.688;2022-09-20T08:34:11;4.22;;;1.30;;
2406;SDS011;37709;53.480;9.688;2022-09-20T08:36:41;6.83;;;1.27;;
2406;SDS011;37709;53.480;9.688;2022-09-20T08:39:14;5.33;;;1.53;;
2406;SDS011;37709;53.480;9.688;2022-09-20T08:44:47;2.90;;;1.40;;
2406;SDS011;37709;53.480;9.688;2022-09-20T08:47:31;3.67;;;1.23;;
2406;SDS011;37709;53.480;9.688;2022-09-20T08:50:04;3.83;;;1.00;;
2406;SDS011;37709;53.480;9.688;2022-09-20T08:52:37;5.10;;;1.40;;
2406;SDS011;37709;53.480;9.688;2022-09-20T08:55:14;2.83;;;1.10;;
2406;SDS011;37709;53.480;9.688;2022-09-20T08:57:57;3.60;;;1.10;;
2406;SDS011;37709;53.480;9.688;2022-09-20T09:00:32;3.63;;;1.33;;
2406;SDS011;37709;53.480;9.688;2022-09-20T09:03:05;6.60;;;1.60;;
2406;SDS011;37709;53.480;9.688;2022-09-20T09:05:37;4.33;;;1.30;;
2406;SDS011;37709;53.480;9.688;2022-09-20T09:08:10;8.23;;;1.50;;
2406;SDS011;37709;53.480;9.688;2022-09-20T09:10:43;3.13;;;0.93;;
2406;SDS011;37709;53.480;9.688;2022-09-20T09:13:21;4.93;;;1.23;;
2406;SDS011;37709;53.480;9.688;2022-09-20T09:15:53;6.83;;;1.87;;
2406;SDS011;37709;53.480;9.688;2022-09-20T09:18:38;4.63;;;1.70;;
2406;SDS011;37709;53.480;9.688;2022-09-20T09:21:07;2.60;;;1.10;;
2406;SDS011;37709;53.480;9.688;2022-09-20T09:23:49;5.43;;;1.50;;
2406;SDS011;37709;53.480;9.688;2022-09-20T09:26:38;3.97;;;1.43;;
2406;SDS011;37709;53.480;9.688;2022-09-20T09:31:45;5.70;;;2.07;;
2406;SDS011;37709;53.480;9.688;2022-09-20T09:34:21;3.30;;;1.00;;
2406;SDS011;37709;53.480;9.688;2022-09-20T09:36:54;4.67;;;1.60;;
2406;SDS011;37709;53.480;9.688;2022-09-20T09:39:26;3.30;;;1.27;;
2406;SDS011;37709;53.480;9.688;2022-09-20T09:41:57;4.03;;;1.40;;
2406;SDS011;37709;53.480;9.688;2022-09-20T09:44:30;3.10;;;1.10;;
2406;SDS011;37709;53.480;9.688;2022-09-20T09:49:56;3.67;;;1.17;;
2406;SDS011;37709;53.480;9.688;2022-09-20T09:52:30;3.80;;;1.13;;
2406;SDS011;37709;53.480;9.688;2022-09-20T09:55:00;4.87;;;1.23;;
2406;SDS011;37709;53.480;9.688;2022-09-20T10:00:19;4.20;;;1.30;;
2406;SDS011;37709;53.480;9.688;2022-09-20T10:08:39;4.00;;;1.00;;
2406;SDS011;37709;53.480;9.688;2022-09-20T10:23:00;4.23;;;2.40;;
2406;SDS011;37709;53.480;9.688;2022-09-20T10:26:17;3.67;;;1.60;;
2406;SDS011;37709;53.480;9.688;2022-09-20T10:38:12;6.30;;;1.97;;
2406;SDS011;37709;53.480;9.688;2022-09-20T10:52:33;4.50;;;1.80;;
2406;SDS011;37709;53.480;9.688;2022-09-20T11:09:39;3.67;;;0.87;;
2406;SDS011;37709;53.480;9.688;2022-09-20T11:17:39;2.83;;;1.37;;
2406;SDS011;37709;53.480;9.688;2022-09-20T11:20:16;4.60;;;1.43;;
2406;SDS011;37709;53.480;9.688;2022-09-20T11:22:54;2.60;;;1.07;;
2406;SDS011;37709;53.480;9.688;2022-09-20T11:28:21;4.00;;;1.10;;
2406;SDS011;37709;53.480;9.688;2022-09-20T11:33:43;6.53;;;2.05;;
2406;SDS011;37709;53.480;9.688;2022-09-20T11:36:47;3.00;;;1.50;;
2406;SDS011;37709;53.480;9.688;2022-09-20T11:39:21;2.70;;;1.27;;
2406;SDS011;37709;53.480;9.688;2022-09-20T11:41:55;3.83;;;1.13;;
2406;SDS011;37709;53.480;9.688;2022-09-20T11:44:26;4.63;;;1.17;;
2406;SDS011;37709;53.480;9.688;2022-09-20T11:46:56;2.80;;;1.00;;
2406;SDS011;37709;53.480;9.688;2022-09-20T11:55:15;2.67;;;1.17;;
2406;SDS011;37709;53.480;9.688;2022-09-20T11:58:01;3.30;;;1.37;;
2406;SDS011;37709;53.480;9.688;2022-09-20T12:00:35;2.30;;;1.00;;
2406;SDS011;37709;53.480;9.688;2022-09-20T12:06:05;5.60;;;1.80;;
2406;SDS011;37709;53.480;9.688;2022-09-20T12:08:51;4.93;;;1.60;;
2406;SDS011;37709;53.480;9.688;2022-09-20T12:11:29;6.40;;;1.60;;
2406;SDS011;37709;53.480;9.688;2022-09-20T12:14:07;2.43;;;1.00;;
2406;SDS011;37709;53.480;9.688;2022-09-20T12:16:45;2.33;;;1.00;;
2406;SDS011;37709;53.480;9.688;2022-09-20T12:24:27;3.43;;;1.00;;
2406;SDS011;37709;53.480;9.688;2022-09-20T12:27:00;3.20;;;1.20;;
2406;SDS011;37709;53.480;9.688;2022-09-20T12:32:00;3.90;;;1.40;;
2406;SDS011;37709;53.480;9.688;2022-09-20T12:34:34;3.93;;;1.07;;
2406;SDS011;37709;53.480;9.688;2022-09-20T12:39:35;5.83;;;1.40;;
2406;SDS011;37709;53.480;9.688;2022-09-20T12:47:16;3.93;;;1.47;;
2406;SDS011;37709;53.480;9.688;2022-09-20T12:49:51;5.83;;;1.10;;
2406;SDS011;37709;53.480;9.688;2022-09-20T12:55:34;3.70;;;1.13;;
2406;SDS011;37709;53.480;9.688;2022-09-20T13:00:41;2.73;;;0.93;;
2406;SDS011;37709;53.480;9.688;2022-09-20T13:11:19;2.30;;;0.93;;
2406;SDS011;37709;53.480;9.688;2022-09-20T13:19:04;3.77;;;1.00;;
2406;SDS011;37709;53.480;9.688;2022-09-20T13:21:56;4.10;;;1.20;;
2406;SDS011;37709;53.480;9.688;2022-09-20T13:24:37;3.93;;;1.20;;
2406;SDS011;37709;53.480;9.688;2022-09-20T13:27:08;3.10;;;0.90;;
2406;SDS011;37709;53.480;9.688;2022-09-20T13:29:45;1.67;;;0.80;;
2406;SDS011;37709;53.480;9.688;2022-09-20T13:32:26;2.90;;;0.97;;
2406;SDS011;37709;53.480;9.688;2022-09-20T13:38:07;3.80;;;1.50;;
2406;SDS011;37709;53.480;9.688;2022-09-20T13:40:37;3.37;;;1.00;;
2406;SDS011;37709;53.480;9.688;2022-09-20T13:46:08;3.60;;;1.23;;
2406;SDS011;37709;53.480;9.688;2022-09-20T13:48:38;3.17;;;1.33;;
2406;SDS011;37709;53.480;9.688;2022-09-20T13:51:22;4.70;;;1.73;;
2406;SDS011;37709;53.480;9.688;2022-09-20T13:53:52;3.47;;;1.30;;
2406;SDS011;37709;53.480;9.688;2022-09-20T13:59:14;3.27;;;0.77;;
2406;SDS011;37709;53.480;9.688;2022-09-20T14:01:49;3.57;;;1.20;;
2406;SDS011;37709;53.480;9.688;2022-09-20T14:04:28;4.00;;;1.23;;
2406;SDS011;37709;53.480;9.688;2022-09-20T14:06:57;3.03;;;1.20;;
2406;SDS011;37709;53.480;9.688;2022-09-20T14:11:57;3.03;;;1.30;;
2406;SDS011;37709;53.480;9.688;2022-09-20T14:14:25;3.20;;;1.10;;
2406;SDS011;37709;53.480;9.688;2022-09-20T14:16:55;2.93;;;1.00;;
2406;SDS011;37709;53.480;9.688;2022-09-20T14:19:26;3.13;;;0.97;;
2406;SDS011;37709;53.480;9.688;2022-09-20T14:22:01;3.17;;;1.23;;
2406;SDS011;37709;53.480;9.688;2022-09-20T14:24:34;2.13;;;1.30;;
2406;SDS011;37709;53.480;9.688;2022-09-20T14:27:16;3.90;;;1.17;;
2406;SDS011;37709;53.480;9.688;2022-09-20T14:29:46;4.27;;;1.03;;
2406;SDS011;37709;53.480;9.688;2022-09-20T14:34:47;5.97;;;1.17;;
2406;SDS011;37709;53.480;9.688;2022-09-20T14:39:52;3.83;;;1.10;;
2406;SDS011;37709;53.480;9.688;2022-09-20T14:42:30;3.27;;;1.10;;
2406;SDS011;37709;53.480;9.688;2022-09-20T14:45:06;1.73;;;0.93;;
2406;SDS011;37709;53.480;9.688;2022-09-20T14:47:57;3.70;;;1.07;;
2406;SDS011;37709;53.480;9.688;2022-09-20T14:50:39;5.13;;;1.00;;
2406;SDS011;37709;53.480;9.688;2022-09-20T14:55:40;3.20;;;1.23;;
2406;SDS011;37709;53.480;9.688;2022-09-20T14:58:21;5.90;;;1.37;;
2406;SDS011;37709;53.480;9.688;2022-09-20T15:00:53;4.73;;;1.53;;
2406;SDS011;37709;53.480;9.688;2022-09-20T15:03:45;6.43;;;1.90;;
2406;SDS011;37709;53.480;9.688;2022-09-20T15:06:12;2.60;;;1.10;;
2406;SDS011;37709;53.480;9.688;2022-09-20T15:08:40;3.33;;;1.23;;
2406;SDS011;37709;53.480;9.688;2022-09-20T15:11:13;4.93;;;1.40;;
2406;SDS011;37709;53.480;9.688;2022-09-20T15:13:42;7.37;;;1.37;;
2406;SDS011;37709;53.480;9.688;2022-09-20T15:16:10;4.33;;;1.27;;
2406;SDS011;37709;53.480;9.688;2022-09-20T15:18:39;2.27;;;0.90;;
2406;SDS011;37709;53.480;9.688;2022-09-20T15:21:08;6.10;;;1.30;;
2406;SDS011;37709;53.480;9.688;2022-09-20T15:23:39;4.60;;;0.90;;
2406;SDS011;37709;53.480;9.688;2022-09-20T15:26:06;3.00;;;1.13;;
2406;SDS011;37709;53.480;9.688;2022-09-20T15:28:36;3.63;;;1.40;;
2406;SDS011;37709;53.480;9.688;2022-09-20T15:31:05;3.03;;;1.20;;
2406;SDS011;37709;53.480;9.688;2022-09-20T15:33:32;2.77;;;0.93;;
2406;SDS011;37709;53.480;9.688;2022-09-20T15:36:00;4.40;;;1.00;;
2406;SDS011;37709;53.480;9.688;2022-09-20T15:38:28;4.23;;;1.37;;
2406;SDS011;37709;53.480;9.688;2022-09-20T15:40:58;2.80;;;1.07;;
2406;SDS011;37709;53.480;9.688;2022-09-20T15:43:26;3.60;;;1.20;;
2406;SDS011;37709;53.480;9.688;2022-09-20T15:45:57;3.67;;;1.17;;
2406;SDS011;37709;53.480;9.688;2022-09-20T15:48:28;3.30;;;0.80;;
2406;SDS011;37709;53.480;9.688;2022-09-20T15:53:31;5.90;;;1.40;;
2406;SDS011;37709;53.480;9.688;2022-09-20T15:56:02;3.67;;;0.90;;
2406;SDS011;37709;53.480;9.688;2022-09-20T15:58:32;3.07;;;0.93;;
2406;SDS011;37709;53.480;9.688;2022-09-20T16:01:03;4.33;;;1.10;;
2406;SDS011;37709;53.480;9.688;2022-09-20T16:03:32;4.90;;;1.40;;
2406;SDS011;37709;53.480;9.688;2022-09-20T16:06:03;4.37;;;0.97;;
2406;SDS011;37709;53.480;9.688;2022-09-20T16:08:33;3.63;;;1.20;;
2406;SDS011;37709;53.480;9.688;2022-09-20T16:11:02;3.37;;;1.40;;
2406;SDS011;37709;53.480;9.688;2022-09-20T16:13:30;6.70;;;1.33;;
2406;SDS011;37709;53.480;9.688;2022-09-20T16:15:59;2.50;;;1.10;;
2406;SDS011;37709;53.480;9.688;2022-09-20T16:18:27;4.17;;;1.20;;
2406;SDS011;37709;53.480;9.688;2022-09-20T16:21:16;3.27;;;1.33;;
2406;SDS011;37709;53.480;9.688;2022-09-20T16:23:49;5.40;;;1.30;;
2406;SDS011;37709;53.480;9.688;2022-09-20T16:26:18;5.30;;;1.10;;
2406;SDS011;37709;53.480;9.688;2022-09-20T16:28:47;2.70;;;1.10;;
2406;SDS011;37709;53.480;9.688;2022-09-20T16:33:52;6.83;;;1.30;;
2406;SDS011;37709;53.480;9.688;2022-09-20T16:36:20;4.33;;;1.27;;
2406;SDS011;37709;53.480;9.688;2022-09-20T16:38:53;3.30;;;1.27;;
2406;SDS011;37709;53.480;9.688;2022-09-20T16:41:24;2.80;;;1.50;;
2406;SDS011;37709;53.480;9.688;2022-09-20T16:43:54;4.67;;;1.90;;
2406;SDS011;37709;53.480;9.688;2022-09-20T16:46:22;4.33;;;1.70;;
2406;SDS011;37709;53.480;9.688;2022-09-20T16:48:53;2.60;;;1.23;;
2406;SDS011;37709;53.480;9.688;2022-09-20T16:51:23;3.17;;;1.10;;
2406;SDS011;37709;53.480;9.688;2022-09-20T16:53:51;5.10;;;1.00;;
2406;SDS011;37709;53.480;9.688;2022-09-20T16:56:21;3.17;;;1.20;;
2406;SDS011;37709;53.480;9.688;2022-09-20T16:58:50;5.83;;;1.50;;
2406;SDS011;37709;53.480;9.688;2022-09-20T17:01:18;6.27;;;2.20;;
2406;SDS011;37709;53.480;9.688;2022-09-20T17:03:46;3.50;;;2.10;;
2406;SDS011;37709;53.480;9.688;2022-09-20T17:06:14;4.90;;;2.03;;
2406;SDS011;37709;53.480;9.688;2022-09-20T17:08:43;3.33;;;1.83;;
2406;SDS011;37709;53.480;9.688;2022-09-20T17:11:13;2.93;;;1.80;;
2406;SDS011;37709;53.480;9.688;2022-09-20T17:13:43;7.33;;;1.60;;
2406;SDS011;37709;53.480;9.688;2022-09-20T17:16:14;5.63;;;1.70;;
2406;SDS011;37709;53.480;9.688;2022-09-20T17:18:44;3.90;;;1.60;;
2406;SDS011;37709;53.480;9.688;2022-09-20T17:21:13;3.60;;;1.13;;
2406;SDS011;37709;53.480;9.688;2022-09-20T17:23:43;2.77;;;1.20;;
2406;SDS011;37709;53.480;9.688;2022-09-20T17:26:18;3.93;;;1.20;;
2406;SDS011;37709;53.480;9.688;2022-09-20T17:28:48;3.30;;;1.03;;
2406;SDS011;37709;53.480;9.688;2022-09-20T17:31:18;7.07;;;1.60;;
2406;SDS011;37709;53.480;9.688;2022-09-20T17:33:49;2.97;;;1.27;;
2406;SDS011;37709;53.480;9.688;2022-09-20T17:36:18;4.43;;;1.67;;
2406;SDS011;37709;53.480;9.688;2022-09-20T17:38:51;3.97;;;1.40;;
2406;SDS011;37709;53.480;9.688;2022-09-20T17:41:20;2.90;;;1.30;;
2406;SDS011;37709;53.480;9.688;2022-09-20T17:43:51;4.93;;;1.43;;
2406;SDS011;37709;53.480;9.688;2022-09-20T17:46:24;2.80;;;1.53;;
2406;SDS011;37709;53.480;9.688;2022-09-20T17:48:57;3.63;;;1.23;;
2406;SDS011;37709;53.480;9.688;2022-09-20T17:51:28;2.20;;;1.30;;
2406;SDS011;37709;53.480;9.688;2022-09-20T17:53:57;2.57;;;1.70;;
2406;SDS011;37709;53.480;9.688;2022-09-20T17:56:25;2.80;;;1.63;;
2406;SDS011;37709;53.480;9.688;2022-09-20T17:58:57;2.27;;;1.17;;
2406;SDS011;37709;53.480;9.688;2022-09-20T18:01:27;7.50;;;1.50;;
2406;SDS011;37709;53.480;9.688;2022-09-20T18:03:57;2.40;;;1.40;;
2406;SDS011;37709;53.480;9.688;2022-09-20T18:06:32;5.07;;;1.50;;
2406;SDS011;37709;53.480;9.688;2022-09-20T18:11:32;4.17;;;1.40;;
2406;SDS011;37709;53.480;9.688;2022-09-20T18:14:01;4.53;;;1.63;;
2406;SDS011;37709;53.480;9.688;2022-09-20T18:16:31;4.23;;;1.73;;
2406;SDS011;37709;53.480;9.688;2022-09-20T18:19:00;3.87;;;1.60;;
2406;SDS011;37709;53.480;9.688;2022-09-20T18:21:28;3.80;;;1.40;;
2406;SDS011;37709;53.480;9.688;2022-09-20T18:23:58;5.50;;;2.30;;
2406;SDS011;37709;53.480;9.688;2022-09-20T18:26:27;5.53;;;1.73;;
2406;SDS011;37709;53.480;9.688;2022-09-20T18:28:57;3.27;;;1.40;;
2406;SDS011;37709;53.480;9.688;2022-09-20T18:31:31;4.07;;;1.90;;
2406;SDS011;37709;53.480;9.688;2022-09-20T18:34:03;3.90;;;1.70;;
2406;SDS011;37709;53.480;9.688;2022-09-20T18:36:36;3.47;;;1.53;;
2406;SDS011;37709;53.480;9.688;2022-09-20T18:39:07;4.23;;;1.40;;
2406;SDS011;37709;53.480;9.688;2022-09-20T18:41:36;4.63;;;2.00;;
2406;SDS011;37709;53.480;9.688;2022-09-20T18:44:06;2.80;;;1.70;;
2406;SDS011;37709;53.480;9.688;2022-09-20T18:46:40;2.60;;;1.93;;
2406;SDS011;37709;53.480;9.688;2022-09-20T18:49:08;7.83;;;1.87;;
2406;SDS011;37709;53.480;9.688;2022-09-20T18:51:39;4.70;;;1.90;;
2406;SDS011;37709;53.480;9.688;2022-09-20T18:54:07;3.63;;;1.50;;
2406;SDS011;37709;53.480;9.688;2022-09-20T18:56:37;3.30;;;1.50;;
2406;SDS011;37709;53.480;9.688;2022-09-20T18:59:06;8.27;;;2.30;;
2406;SDS011;37709;53.480;9.688;2022-09-20T19:09:51;5.97;;;1.90;;
2406;SDS011;37709;53.480;9.688;2022-09-20T19:18:16;4.77;;;2.57;;
2406;SDS011;37709;53.480;9.688;2022-09-20T19:26:34;5.37;;;1.80;;
2406;SDS011;37709;53.480;9.688;2022-09-20T19:29:08;5.10;;;2.03;;
2406;SDS011;37709;53.480;9.688;2022-09-20T19:31:46;5.70;;;2.00;;
2406;SDS011;37709;53.480;9.688;2022-09-20T19:34:20;5.33;;;2.13;;
2406;SDS011;37709;53.480;9.688;2022-09-20T19:40:20;5.23;;;2.57;;
2406;SDS011;37709;53.480;9.688;2022-09-20T19:42:59;3.67;;;2.10;;
2406;SDS011;37709;53.480;9.688;2022-09-20T19:48:38;6.90;;;2.30;;
2406;SDS011;37709;53.480;9.688;2022-09-20T19:51:11;3.47;;;2.40;;
2406;SDS011;37709;53.480;9.688;2022-09-20T19:53:39;6.83;;;2.93;;
2406;SDS011;37709;53.480;9.688;2022-09-20T19:58:52;5.97;;;1.87;;
2406;SDS011;37709;53.480;9.688;2022-09-20T20:01:22;4.27;;;2.80;;
2406;SDS011;37709;53.480;9.688;2022-09-20T20:03:51;8.07;;;2.30;;
2406;SDS011;37709;53.480;9.688;2022-09-20T20:06:33;5.07;;;3.40;;
2406;SDS011;37709;53.480;9.688;2022-09-20T20:12:44;3.23;;;1.80;;
2406;SDS011;37709;53.480;9.688;2022-09-20T20:18:18;4.30;;;2.33;;
2406;SDS011;37709;53.480;9.688;2022-09-20T20:21:11;5.53;;;1.87;;
2406;SDS011;37709;53.480;9.688;2022-09-20T20:23:57;6.10;;;2.00;;
2406;SDS011;37709;53.480;9.688;2022-09-20T20:26:33;9.90;;;2.30;;
2406;SDS011;37709;53.480;9.688;2022-09-20T20:29:01;4.77;;;1.57;;
2406;SDS011;37709;53.480;9.688;2022-09-20T20:31:28;4.57;;;1.57;;
2406;SDS011;37709;53.480;9.688;2022-09-20T20:33:56;6.57;;;1.90;;
2406;SDS011;37709;53.480;9.688;2022-09-20T20:36:24;7.50;;;2.23;;
2406;SDS011;37709;53.480;9.688;2022-09-20T20:38:51;5.10;;;1.70;;
2406;SDS011;37709;53.480;9.688;2022-09-20T20:41:20;4.57;;;2.33;;
2406;SDS011;37709;53.480;9.688;2022-09-20T20:43:52;8.03;;;3.10;;
2406;SDS011;37709;53.480;9.688;2022-09-20T20:46:22;5.60;;;2.30;;
2406;SDS011;37709;53.480;9.688;2022-09-20T20:48:51;3.83;;;2.30;;
2406;SDS011;37709;53.480;9.688;2022-09-20T20:51:19;3.33;;;1.80;;
2406;SDS011;37709;53.480;9.688;2022-09-20T20:53:52;8.07;;;2.23;;
2406;SDS011;37709;53.480;9.688;2022-09-20T20:56:22;6.80;;;1.83;;
2406;SDS011;37709;53.480;9.688;2022-09-20T20:58:51;4.47;;;2.30;;
2406;SDS011;37709;53.480;9.688;2022-09-20T21:01:20;3.93;;;2.00;;
2406;SDS011;37709;53.480;9.688;2022-09-20T21:03:50;4.00;;;2.03;;
2406;SDS011;37709;53.480;9.688;2022-09-20T21:06:20;5.47;;;2.77;;
2406;SDS011;37709;53.480;9.688;2022-09-20T21:08:50;6.90;;;2.40;;
2406;SDS011;37709;53.480;9.688;2022-09-20T21:11:24;8.33;;;2.73;;
2406;SDS011;37709;53.480;9.688;2022-09-20T21:13:54;6.73;;;3.00;;
2406;SDS011;37709;53.480;9.688;2022-09-20T21:16:27;7.23;;;2.60;;
2406;SDS011;37709;53.480;9.688;2022-09-20T21:18:56;6.97;;;3.47;;
2406;SDS011;37709;53.480;9.688;2022-09-20T21:21:28;10.00;;;3.80;;
2406;SDS011;37709;53.480;9.688;2022-09-20T21:23:58;6.43;;;3.20;;
2406;SDS011;37709;53.480;9.688;2022-09-20T21:26:28;5.80;;;3.73;;